Braunschweig Airport

Airport
ICAO code: 
EDVE
IATA Code: 
BWE
Summary
ICAO Region: 
EUR
Territory: 
Location: 
Braunschweig, Lower Saxony
Serving: 
Braunschweig
Elevation: 
295 ft
Coordinates: 
Aerial View: 
52° 19' 9.485" N, 10° 33' 11.719" E
Metar
Observation
EDVE 040720Z 20002KT 9999 OVC020 03/01 Q0999
Station
Braunschweig
Date/Time
2021-12-04 07:20:00
Wind direction
200°
Wind speed
02 kts
Lowest cloud amount
overcast
Temperature
3°C
Dew point
1°C
Humidity
86%
QNH
999 hPa
Weather condition
n/a

Description

Airport on the northern edge of Braunschweig, Germany.

Climatology

Temperate Marine climate/Oceanic climate (Köppen climate classification Cfb) - Moderately cool summer and comparatively warm winter.

Runways

Designator Length Width Surface Rops
08R/26L 900 30 GRS No/No
8/26 1680 30 ASP Yes/Yes
Airport map: 
Aerial View: 

SKYbrary Partners:

Safety knowledge contributed by: